Latest Weather Observations for Coonabarabran Airport

IDN60801

Issued at 10:12 am EDT Wednesday 20 February 2019 (issued every 10 minutes, with the page automatically refreshed every 10 minutes)

About weather observations | Map of weather stations | Latest weather observations for NSW | Other Formats
Station Details ID: 064017 Name: COONABARABRAN AIRPORT AWS Lat: -31.33 Lon: 149.27 Height: 645.0 m
Data from the previous 72 hours. | See also: Recent months at Coonabarabran Airport
Date/Time
EDT
Temp
°C
App
Temp
°C
Dew
Point
°C
Rel
Hum
%
Delta-T
°C
Wind Press
QNH
hPa
Press
MSL
hPa
Rain since
9am
mm
Dir  Spd
km/h
Gust
km/h
Spd
kts
Gust
kts
20/10:00am 24.9 24.8 16.1 58 5.5 SSW 11 15 6 8 1011.3 1007.4 0.0
20/09:30am 23.8 24.2 16.3 63 4.7 SSW 9 13 5 7 1011.4 1007.5 0.0
20/09:00am 22.0 22.5 16.5 71 3.4 S 9 13 5 7 1011.2 1007.3 0.0
20/08:30am 21.1 21.0 16.9 77 2.6 SSW 13 15 7 8 1011.1 1007.2 0.0
20/08:00am 20.2 20.1 17.0 82 2.0 SW 13 15 7 8 1010.9 1006.9 0.0
20/07:30am 19.1 19.0 16.9 87 1.4 SW 13 15 7 8 1010.4 1006.5 0.0
20/07:00am 18.5 17.9 16.7 89 1.1 SSW 15 15 8 8 1010.1 1006.2 0.0
20/06:30am 18.3 17.6 16.5 89 1.1 SSW 15 17 8 9 1010.0 1006.1 0.0
20/06:00am 18.3 18.0 16.5 89 1.1 SSW 13 15 7 8 1009.8 1005.9 0.0
20/05:30am 18.7 18.5 16.7 88 1.2 SSW 13 17 7 9 1009.7 1005.8 0.0
20/05:00am 18.9 18.4 16.9 88 1.2 SSW 15 17 8 9 1009.8 1005.9 0.0
20/04:30am 18.8 18.6 16.6 87 1.4 SSW 13 17 7 9 1009.7 1005.8 0.0
20/04:00am 18.9 18.6 16.5 86 1.5 SSW 13 15 7 8 1009.7 1005.8 0.0
20/03:30am 19.1 18.8 16.5 85 1.6 SSW 13 17 7 9 1009.9 1006.0 0.0
20/03:00am 19.4 18.8 16.6 84 1.7 S 15 17 8 9 1010.1 1006.2 0.0
20/02:30am 19.7 18.6 16.3 81 2.1 S 17 20 9 11 1010.3 1006.4 0.0
20/02:00am 20.2 19.1 16.4 79 2.4 S 17 22 9 12 1010.4 1006.5 0.0
20/01:30am 20.7 19.3 16.5 77 2.6 SSE 19 24 10 13 1010.7 1006.8 0.0
20/01:00am 21.2 18.7 16.2 73 3.1 S 24 32 13 17 1010.9 1006.9 0.0
20/12:30am 22.7 17.9 8.8 41 7.6 S 24 32 13 17 1011.2 1007.3 0.0
20/12:00am 24.1 17.5 -0.2 20 11.5 SSW 24 30 13 16 1011.1 1007.2 0.0
 
Date/Time
EDT
Temp
°C
App
Temp
°C
Dew
Point
°C
Rel
Hum
%
Delta-T
°C
Wind Press
QNH
hPa
Press
MSL
hPa
Rain since
9am
mm
Dir  Spd
km/h
Gust
km/h
Spd
kts
Gust
kts
19/11:30pm 24.8 18.4 1.0 21 11.5 SSW 24 33 13 18 1011.1 1007.2 0.0
19/11:00pm 25.3 19.6 2.7 23 11.3 SSW 22 35 12 19 1011.3 1007.4 0.0
19/10:30pm 26.1 20.2 4.0 24 11.4 SSW 24 32 13 17 1011.3 1007.4 0.0
19/10:00pm 26.9 20.8 4.6 24 11.7 SSW 26 39 14 21 1010.9 1006.9 0.0
19/09:30pm 27.6 22.1 5.8 25 11.7 SSW 24 32 13 17 1010.4 1006.5 0.0
19/09:00pm 28.3 23.7 6.4 25 11.9 SW 20 28 11 15 1010.0 1006.1 0.0
19/08:30pm 29.1 24.5 6.5 24 12.4 SW 20 28 11 15 1009.5 1005.5 0.0
19/08:00pm 30.0 25.4 6.6 23 12.9 SW 20 32 11 17 1009.0 1005.1 0.0
19/07:30pm 31.6 27.2 7.3 22 13.6 SW 20 28 11 15 1008.3 1004.4 0.0
19/07:00pm 33.0 27.2 7.8 21 14.4 SW 28 39 15 21 1007.8 1003.8 0.0
19/06:41pm 34.4 28.5 7.5 19 15.3 SW 28 39 15 21 1007.4 1003.5 0.0
19/06:30pm 35.5 31.7 3.9 14 17.1 W 13 20 7 11 1007.3 1003.4 0.0
19/06:00pm 35.8 30.3 4.2 14 17.3 W 22 33 12 18 1007.1 1003.2 0.0
19/05:30pm 35.7 30.8 5.1 15 16.9 NW 20 35 11 19 1007.1 1003.2 0.0
19/05:00pm 35.1 29.5 5.5 16 16.5 NNW 24 37 13 20 1007.1 1003.2 0.0
19/04:30pm 35.8 30.3 6.1 16 16.7 NW 24 39 13 21 1007.2 1003.3 0.0
19/04:00pm 36.0 30.0 5.3 15 17.1 NW 26 37 14 20 1007.6 1003.6 0.0
19/03:30pm 34.9 29.1 6.2 17 16.1 NW 26 35 14 19 1007.9 1003.9 0.0
19/03:00pm 34.6 29.3 6.8 18 15.7 NW 24 39 13 21 1008.3 1004.4 0.0
19/02:30pm 34.7 29.4 6.9 18 15.7 NW 24 33 13 18 1008.7 1004.8 0.0
19/02:00pm 34.7 29.2 7.7 19 15.5 NW 26 33 14 18 1009.1 1005.2 0.0
19/01:30pm 34.4 29.6 7.5 19 15.3 NNW 22 35 12 19 1009.4 1005.4 0.0
19/01:00pm 32.8 27.3 7.6 21 14.3 NNW 26 41 14 22 1009.6 1005.7 0.0
19/12:30pm 33.2 27.8 7.9 21 14.4 NNW 26 35 14 19 1010.2 1006.3 0.0
19/12:00pm 32.2 26.1 8.4 23 13.6 NNW 30 39 16 21 1010.6 1006.7 0.0
19/11:30am 31.0 25.0 8.7 25 12.8 NNW 30 41 16 22 1011.0 1007.1 0.0
19/11:00am 31.0 26.8 9.8 27 12.4 NNW 22 32 12 17 1011.2 1007.3 0.0
19/10:30am 29.2 25.9 10.8 32 10.8 NNW 19 30 10 16 1011.2 1007.3 0.0
19/10:00am 27.9 23.3 11.0 35 9.9 N 26 35 14 19 1010.9 1006.9 0.0
19/09:30am 26.6 22.3 10.7 37 9.2 N 24 33 13 18 1010.9 1006.9 0.0
19/09:00am 25.8 21.4 10.4 38 8.9 N 24 32 13 17 1010.9 1006.9 0.0
19/08:30am 25.4 21.2 9.7 37 8.9 NNW 22 37 12 20 1010.7 1006.8 0.0
19/08:00am 24.7 20.4 7.8 34 9.2 N 20 26 11 14 1010.5 1006.6 0.0
19/07:30am 23.0 20.2 8.7 40 7.9 N 13 15 7 8 1010.3 1006.4 0.0
19/07:00am 23.1 20.2 8.0 38 8.2 N 13 19 7 10 1010.2 1006.3 0.0
19/06:30am 24.6 22.6 8.5 36 8.9 NNE 9 13 5 7 1010.0 1006.1 0.0
19/06:00am 24.5 22.9 8.9 37 8.7 SSE 7 13 4 7 1009.9 1006.0 0.0
19/05:30am 25.0 22.7 8.9 36 9.0 SSW 11 13 6 7 1009.6 1005.7 0.0
19/05:00am 25.5 23.2 8.9 35 9.3 SW 11 15 6 8 1009.6 1005.7 0.0
19/04:30am 25.5 23.8 8.5 34 9.4 ESE 7 15 4 8 1008.9 1005.0 0.0
19/04:00am 26.1 23.7 8.6 33 9.8 SSW 11 15 6 8 1009.6 1005.7 0.0
19/03:30am 26.2 23.3 8.2 32 10.0 SSW 13 15 7 8 1010.0 1006.1 0.0
19/03:00am 27.1 24.1 7.5 29 10.8 SW 13 22 7 12 1010.2 1006.3 0.0
19/02:30am 27.8 23.8 6.6 26 11.5 WSW 17 22 9 12 1010.2 1006.3 0.0
19/02:00am 27.5 23.5 6.8 27 11.3 NNW 17 22 9 12 1009.4 1005.4 0.0
19/01:30am 26.5 22.1 6.5 28 10.8 NNW 19 22 10 12 1009.3 1005.3 0.0
19/01:00am 26.4 22.3 6.4 28 10.8 NNW 17 20 9 11 1009.6 1005.7 0.0
19/12:30am 27.0 22.9 6.4 27 11.1 NNW 17 20 9 11 1009.9 1006.0 0.0
19/12:00am 27.4 23.7 6.2 26 11.4 NNW 15 17 8 9 1010.0 1006.1 0.0
 
Date/Time
EDT
Temp
°C
App
Temp
°C
Dew
Point
°C
Rel
Hum
%
Delta-T
°C
Wind Press
QNH
hPa
Press
MSL
hPa
Rain since
9am
mm
Dir  Spd
km/h
Gust
km/h
Spd
kts
Gust
kts
18/11:30pm 27.1 23.3 6.0 26 11.3 NNW 15 17 8 9 1010.0 1006.1 0.0
18/11:00pm 27.7 24.4 6.5 26 11.5 NNW 13 17 7 9 1010.3 1006.4 0.0
18/10:30pm 28.4 25.5 6.5 25 11.9 NNW 11 15 6 8 1010.5 1006.6 0.0
18/10:00pm 28.4 25.1 6.5 25 11.9 NNW 13 15 7 8 1010.5 1006.6 0.0
18/09:30pm 28.7 25.7 6.1 24 12.2 NNW 11 13 6 7 1010.4 1006.5 0.0
18/09:00pm 28.7 25.3 6.1 24 12.3 NW 13 15 7 8 1010.3 1006.4 0.0
18/08:30pm 29.6 26.3 6.3 23 12.7 NW 13 17 7 9 1010.2 1006.3 0.0
18/08:00pm 30.6 26.9 6.5 22 13.3 NW 15 17 8 9 1010.2 1006.3 0.0
18/07:30pm 31.9 28.2 6.2 20 14.2 NW 15 19 8 10 1009.9 1006.0 0.0
18/07:00pm 32.7 28.6 6.1 19 14.7 NW 17 24 9 13 1009.7 1005.8 0.0
18/06:30pm 33.1 29.0 6.4 19 14.9 NW 17 22 9 12 1009.6 1005.7 0.0
18/06:00pm 33.9 31.1 7.0 19 15.2 NW 11 26 6 14 1009.5 1005.5 0.0
18/05:30pm 32.8 29.5 6.2 19 14.7 NW 13 20 7 11 1009.7 1005.8 0.0
18/05:00pm 33.6 30.2 6.0 18 15.3 W 13 24 7 13 1009.9 1006.0 0.0
18/04:30pm 34.4 31.5 6.7 18 15.6 NNW 11 22 6 12 1009.9 1006.0 0.0
18/04:00pm 33.9 30.0 7.0 19 15.2 NW 17 24 9 13 1010.3 1006.4 0.0
18/03:30pm 33.7 31.1 6.1 18 15.3 N 9 17 5 9 1010.6 1006.7 0.0
18/03:00pm 33.2 29.9 6.5 19 14.9 NE 13 20 7 11 1011.1 1007.2 0.0
18/02:30pm 33.3 29.8 7.3 20 14.7 NNW 15 26 8 14 1011.6 1007.7 0.0
18/02:00pm 32.2 28.3 7.1 21 14.1 NNW 17 26 9 14 1012.3 1008.5 0.0
18/01:30pm 31.9 28.8 8.8 24 13.3 NNW 15 33 8 18 1012.7 1008.8 0.0
18/01:00pm 31.0 27.3 8.1 24 13.0 NNW 17 28 9 15 1013.3 1009.4 0.0
18/12:30pm 30.4 26.3 8.7 26 12.4 NW 20 28 11 15 1013.7 1009.8 0.0
18/12:00pm 29.2 25.5 10.3 31 11.0 NNW 20 30 11 16 1014.0 1010.2 0.0
18/11:30am 28.4 24.8 10.6 33 10.4 NNW 20 28 11 15 1014.5 1010.6 0.0
18/11:00am 28.0 24.9 11.5 35 9.7 N 19 30 10 16 1014.7 1010.8 0.0
18/10:30am 26.7 23.3 11.2 38 9.1 N 20 28 11 15 1014.8 1010.9 0.0
18/10:00am 25.6 21.4 11.0 40 8.5 NNW 24 32 13 17 1014.7 1010.8 0.0
18/09:30am 24.0 19.0 11.0 44 7.5 NNW 28 37 15 20 1014.5 1010.6 0.0
18/09:00am 24.1 19.5 11.1 44 7.5 NNW 26 37 14 20 1014.4 1010.5 0.0
18/08:30am 22.8 17.7 10.6 46 6.9 N 28 35 15 19 1014.2 1010.3 0.0
18/08:00am 22.0 17.7 9.5 45 6.9 NNW 22 32 12 17 1014.0 1010.2 0.0
18/07:30am 20.7 16.7 8.4 45 6.6 N 19 22 10 12 1013.9 1010.1 0.0
18/07:00am 20.3 16.3 8.3 46 6.5 N 19 22 10 12 1013.5 1009.6 0.0
18/06:30am 20.7 16.8 7.0 41 7.2 N 17 20 9 11 1013.4 1009.5 0.0
18/06:00am 21.0 18.7 7.3 41 7.3 N 9 13 5 7 1012.9 1009.0 0.0
18/05:30am 21.5 19.0 6.6 38 7.8 N 9 11 5 6 1012.6 1008.7 0.0
18/05:00am 21.7 18.3 6.0 36 8.2 N 13 17 7 9 1012.3 1008.5 0.0
18/04:30am 22.3 18.9 6.1 35 8.5 NNE 13 17 7 9 1012.3 1008.5 0.0
18/04:00am 22.6 18.4 5.5 33 8.9 NNE 17 19 9 10 1012.2 1008.3 0.0
18/03:30am 22.3 18.4 5.3 33 8.8 NE 15 20 8 11 1012.2 1008.3 0.0
18/03:00am 21.7 18.4 4.3 32 8.8 ESE 11 19 6 10 1012.1 1008.2 0.0
18/02:30am 24.0 22.9 4.9 29 9.9 CALM 0 0 0 0 1012.2 1008.3 0.0
18/02:00am 24.9 22.1 5.2 28 10.3 E 9 11 5 6 1012.3 1008.5 0.0
18/01:30am 24.5 22.0 4.8 28 10.2 ESE 7 15 4 8 1012.8 1008.9 0.0
18/01:00am 24.3 22.2 4.1 27 10.3 SE 4 7 2 4 1013.2 1009.3 0.0
18/12:30am 25.7 23.1 4.2 25 11.1 SSE 7 13 4 7 1013.4 1009.5 0.0
18/12:00am 25.8 22.8 4.3 25 11.1 S 9 11 5 6 1013.6 1009.7 0.0
 
Date/Time
EDT
Temp
°C
App
Temp
°C
Dew
Point
°C
Rel
Hum
%
Delta-T
°C
Wind Press
QNH
hPa
Press
MSL
hPa
Rain since
9am
mm
Dir  Spd
km/h
Gust
km/h
Spd
kts
Gust
kts
17/11:30pm 25.9 23.0 4.4 25 11.1 SSW 9 13 5 7 1013.6 1009.7 0.0
17/11:00pm 25.9 22.6 4.4 25 11.1 SW 11 13 6 7 1013.7 1009.8 0.0
17/10:30pm 25.7 22.1 4.8 26 10.9 WSW 13 15 7 8 1013.6 1009.7 0.0
17/10:00pm 25.7 22.3 4.2 25 11.1 WSW 11 13 6 7 1013.6 1009.7 0.0
17/09:30pm 26.3 23.7 4.1 24 11.5 WSW 7 11 4 6 1013.5 1009.6 0.0
17/09:00pm 27.3 24.7 4.4 23 12.0 SW 7 13 4 7 1013.3 1009.4 0.0
17/08:30pm 27.5 24.6 4.5 23 12.0 S 9 13 5 7 1013.0 1009.1 0.0
17/08:00pm 28.2 24.9 4.5 22 12.5 S 11 11 6 6 1012.7 1008.8 0.0
17/07:30pm 30.0 27.2 5.3 21 13.3 SSW 9 13 5 7 1012.4 1008.6 0.0
17/07:00pm 31.0 28.0 6.1 21 13.7 S 11 17 6 9 1012.2 1008.3 0.0
17/06:30pm 31.4 29.8 6.5 21 13.8 SW 4 9 2 5 1012.2 1008.3 0.0
17/06:00pm 31.6 28.6 5.9 20 14.1 WSW 11 15 6 8 1012.3 1008.5 0.0
17/05:30pm 32.4 29.1 6.6 20 14.4 WSW 13 19 7 10 1012.3 1008.5 0.0
17/05:00pm 32.2 28.9 6.4 20 14.3 W 13 22 7 12 1012.3 1008.5 0.0
17/04:30pm 31.7 29.5 6.0 20 14.1 NNE 7 13 4 7 1012.7 1008.8 0.0
17/04:00pm 32.4 28.0 6.6 20 14.4 S 19 24 10 13 1012.9 1009.0 0.0
17/03:30pm 32.7 30.0 7.5 21 14.3 WSW 11 22 6 12 1013.4 1009.5 0.0
17/03:00pm 32.0 30.0 7.0 21 14.0 SSE 7 17 4 9 1013.9 1010.1 0.0
17/02:30pm 31.1 29.7 8.8 25 12.8 E 6 13 3 7 1014.6 1010.7 0.0
17/02:00pm 30.6 27.3 9.5 27 12.2 NW 17 24 9 13 1014.9 1011.0 0.0
17/01:30pm 29.9 27.3 9.4 28 11.8 NNE 13 20 7 11 1015.2 1011.4 0.0
17/01:00pm 28.4 26.2 9.2 30 10.9 NE 11 22 6 12 1015.7 1011.9 0.0
17/12:30pm 28.1 24.8 9.4 31 10.7 NNW 17 28 9 15 1016.3 1012.4 0.0
17/12:00pm 27.2 23.9 9.5 33 10.1 NNW 17 24 9 13 1016.9 1013.1 0.0
17/11:30am 26.6 23.6 10.7 37 9.2 NNW 17 24 9 13 1017.2 1013.4 0.0
17/11:00am 26.1 22.4 11.5 40 8.5 NNW 22 30 12 16 1017.5 1013.6 0.0
17/10:30am 25.0 21.2 11.2 42 8.0 NNW 22 30 12 16 1017.5 1013.6 0.0

Other formats

Comma delimited format used in spreadsheet applications
http://www.bom.gov.au/fwo/IDN60801/IDN60801.95728.axf

JavaScript Object Notation format (JSON) in row-major order
http://www.bom.gov.au/fwo/IDN60801/IDN60801.95728.json

Data quality

Most of these data are generated automatically and are frequently updated. Quality checks on data are not normally performed. It is possible for incorrect values to appear. Refer to information at About Latest Weather Observations and please check the disclaimer before using these data.